Aviation Digital Data Service (ADDS)

Output produced by METARs form (2210 UTC 21 May 2022)
found at http://www.aviationweather.gov/metar/data/
 
LHPP 212145Z AUTO VRB01KT CAVOK 18/15 Q1016
LHPP 212115Z AUTO VRB01KT CAVOK 17/15 Q1016
LHPP 212045Z AUTO 08003KT 030V100 9999 -SHRA FEW071 //////TCU 18/15 Q1016 RESHRA
LHPP 212026Z AUTO 05006KT 9999 -RA BKN080 //////CB 18/15 Q1016 RERA
LHPP 212015Z AUTO 03006KT 9999 VCTSRA FEW044 OVC071 //////CB 18/14 Q1016
LHPP 211945Z AUTO 35007KT 9999 VCTSRA SCT054 SCT077 //////CB 20/14 Q1017
LHPP 211944Z AUTO 35007KT 9999 VCTSRA SCT054 SCT077 //////CB 20/14 Q1017
LHPP 211931Z AUTO 01004KT 9999
LHPP 211915Z AUTO 02006KT 340V050 9999 OVC095 //////CB 21/14 Q1016
LHPP 211845Z AUTO 03010KT 9999 SCT060 BKN098 //////CB 22/14 Q1016
LHPP 211836Z AUTO 02012KT 350V050 9999 BKN060 //////CB 22/14 Q1016
LHPP 211815Z AUTO 02002KT 9999 //////CB 24/15 Q1015
LHPP 211745Z AUTO 34003KT 9999 //////TCU 25/15 Q1015
LHPP 211715Z AUTO 32003KT CAVOK 25/15 Q1015
LHPP 211645Z AUTO 33005KT CAVOK 26/15 Q1015
LHPP 211615Z AUTO 32004KT 280V350 CAVOK 27/14 Q1015
TAF LHPP 211415Z 2115/2124 31012KT CAVOK 
     PROB40 
     TEMPO 2115/2120 VRB20G34KT 8000 SHRA TSRA BKN040CB